Flood From: 18-02-2018 16:00 Until: 19-02-2018 16:00 warning for: Flood Level: Yellow info button

Although rather usual in this region, locally or potentially dangerous phenomena are expected. (such as local winds, summer thunderstorms, rising streams or high waves) Be aware and pay attention to the latest weather updates, especially if you carry out activities exposed to weather or close to a stream or shoreline. 


Meteo18 Weather Cam more information Meteo18 Weather Cam


Thunder radar more information blitzortung!


Rain radar more information rain snow radar


Visit our other weather sites:

Template documentation
and downloads

And another site



Weather Underground History page Text

Daily Summary for December 11, 2017 Units:  Metric    English   Both
« Previous Day
Next Day »
Daily Weekly Monthly Yearly Custom
  High: Low: Average:
Temperature: -17.8 °C -15.8 °C -13.6 °C
Dew Point: -17.8 °C -17.9 °C -15.4 °C
Humidity: Humidity % 68 % 80 %
Wind Speed: 0 km/h 2.6 km/h 34.4 km/h
Wind Gust: 0 km/h - -
Wind:- - SW
Pressure: 0 hPa 33006.7 hPa -
Precipitation: 109.22 mm    
Historical Graphs
 
 
Tabular Data for December 11, 2017
Time Temperature Dew Point Pressure Wind Wind Speed Wind Gust Humidity Rainfall Rate (Hourly)
-17.8 °C -17.8 °C 0 hPa Calm     Humidity % 0 mm
00:02 -13.7 °C -14.3 °C 33352.1 hPa SSE 18.2 km/h 28.5 km/h 92 % 0 mm
00:17 -13.8 °C -14.4 °C 33338.6 hPa South 12.9 km/h 31.1 km/h 92 % 0 mm
00:22 -13.8 °C -14.4 °C 33328.4 hPa SSE 12.9 km/h 31.1 km/h 92 % 0 mm
00:27 -13.8 °C -14.4 °C 33328.4 hPa SSE 7.7 km/h 23.3 km/h 93 % 0 mm
00:32 -13.8 °C -14.4 °C 33338.6 hPa SE 7.7 km/h 23.3 km/h 93 % 0 mm
00:37 -13.8 °C -14.4 °C 33352.1 hPa South 10.3 km/h 20.8 km/h 93 % 0 mm
00:47 -13.8 °C -14.4 °C 33328.4 hPa SE 2.6 km/h 20.8 km/h 93 % 0 mm
00:52 -13.8 °C -14.4 °C 33318.2 hPa SE 2.6 km/h 25.9 km/h 93 % 0 mm
00:57 -13.8 °C -14.4 °C 33304.7 hPa SE 7.7 km/h 25.9 km/h 93 % 0 mm
01:02 -13.8 °C -14.3 °C 33304.7 hPa SE 7.7 km/h 25.9 km/h 94 % 0 mm
01:12 -13.8 °C -14.3 °C 33294.5 hPa SE 7.7 km/h 20.8 km/h 94 % 0 mm
01:22 -13.8 °C -14.3 °C 33294.5 hPa ESE 7.7 km/h 23.3 km/h 94 % 0 mm
01:32 -13.7 °C -14.2 °C 33284.4 hPa SE 10.3 km/h 31.1 km/h 94 % 0 mm
01:37 -13.7 °C -14.2 °C 33270.8 hPa SSE 5.1 km/h 31.1 km/h 94 % 0 mm
01:42 -13.7 °C -14.2 °C 33270.8 hPa SE 10.3 km/h 31.1 km/h 94 % 7.62 mm
02:02 -13.7 °C -14.2 °C 33247.1 hPa SSE 5.1 km/h 38.8 km/h 94 % 12.7 mm
02:07 -13.7 °C -14.2 °C 33247.1 hPa SSE 2.6 km/h 25.9 km/h 94 % 12.7 mm
02:12 -13.7 °C -14.2 °C 33237 hPa SE 10.3 km/h 18.2 km/h 94 % 12.7 mm
02:17 -13.7 °C -14.2 °C 33237 hPa SE 7.7 km/h 18.2 km/h 94 % 20.32 mm
02:22 -13.7 °C -14.2 °C 33226.8 hPa SSE 5.1 km/h 18.2 km/h 94 % 20.32 mm
02:27 -13.7 °C -14.2 °C 33213.3 hPa SSE 10.3 km/h 20.8 km/h 94 % 25.4 mm
02:32 -13.7 °C -14.2 °C 33213.3 hPa SSE 18.2 km/h 20.8 km/h 94 % 33.02 mm
02:37 -13.7 °C -14.2 °C 33213.3 hPa ESE 7.7 km/h 20.8 km/h 94 % 38.1 mm
02:42 -13.7 °C -14.2 °C 33203.1 hPa ESE 12.9 km/h 23.3 km/h 94 % 33.02 mm
02:47 -13.7 °C -14.2 °C 33203.1 hPa ESE 10.3 km/h 23.3 km/h 94 % 38.1 mm
02:52 -13.7 °C -14.2 °C 33203.1 hPa SSE 5.1 km/h 33.6 km/h 94 % 38.1 mm
03:02 -13.7 °C -14.2 °C 33189.6 hPa SSE 7.7 km/h 33.6 km/h 94 % 38.1 mm
03:07 -13.6 °C -14.1 °C 33189.6 hPa South 10.3 km/h 31.1 km/h 94 % 38.1 mm
03:12 -13.6 °C -14.1 °C 33179.4 hPa SE 7.7 km/h 31.1 km/h 94 % 38.1 mm
03:22 -13.6 °C -14.1 °C 33169.3 hPa SE 7.7 km/h 25.9 km/h 94 % 38.1 mm
03:32 -13.5 °C -14 °C 33145.6 hPa SE 15.6 km/h 28.5 km/h 94 % 38.1 mm
03:42 -13.5 °C -14 °C 33135.4 hPa ESE 12.9 km/h 25.9 km/h 94 % 38.1 mm
03:57 -13.4 °C -13.9 °C 33111.7 hPa SE 10.3 km/h 33.6 km/h 94 % 33.02 mm
04:02 -13.4 °C -14.1 °C 33098.2 hPa SE 7.7 km/h 25.9 km/h 93 % 33.02 mm
04:12 -13.3 °C -13.9 °C 33088 hPa SSE 18.2 km/h 28.5 km/h 93 % 25.4 mm
04:17 -13.3 °C -13.9 °C 33088 hPa SE 15.6 km/h 28.5 km/h 93 % 20.32 mm
04:22 -13.3 °C -13.9 °C 33077.8 hPa ESE 10.3 km/h 38.8 km/h 92 % 12.7 mm
04:32 -13.3 °C -13.9 °C 33064.3 hPa SSE 10.3 km/h 38.8 km/h 93 % 12.7 mm
04:37 -13.3 °C -13.9 °C 33064.3 hPa SSE 10.3 km/h 36.2 km/h 93 % 12.7 mm
04:42 -13.2 °C -13.8 °C 33054.1 hPa SSE 15.6 km/h 44.1 km/h 93 % 12.7 mm
04:47 -13.2 °C -13.8 °C 33054.1 hPa South 18.2 km/h 44.1 km/h 93 % 12.7 mm
04:52 -13.2 °C -13.8 °C 33040.6 hPa SSE 31.1 km/h 44.1 km/h 93 % 12.7 mm
05:02 -13 °C -13.6 °C 33040.6 hPa South 18.2 km/h 36.2 km/h 93 % 7.62 mm
05:12 -12.9 °C -13.6 °C 33030.4 hPa SE 12.9 km/h 38.8 km/h 92 % 12.7 mm
05:17 -12.9 °C -13.6 °C 33020.3 hPa SE 15.6 km/h 38.8 km/h 92 % 12.7 mm
05:22 -12.9 °C -13.6 °C 33006.7 hPa South 12.9 km/h 36.2 km/h 92 % 12.7 mm
05:27 -12.9 °C -13.6 °C 33006.7 hPa SSE 15.6 km/h 41.4 km/h 92 % 12.7 mm
05:32 -12.9 °C -13.6 °C 33006.7 hPa SSE 12.9 km/h 46.7 km/h 92 % 12.7 mm
05:42 -12.7 °C -13.5 °C 33006.7 hPa SSE 12.9 km/h 46.7 km/h 91 % 12.7 mm
05:47 -12.6 °C -13.4 °C 33006.7 hPa SSE 20.8 km/h 33.6 km/h 91 % 12.7 mm
05:52 -12.4 °C -13.3 °C 33006.7 hPa South 25.9 km/h 38.8 km/h 90 % 12.7 mm
05:57 -12.4 °C -13.3 °C 33006.7 hPa SE 23.3 km/h 44.1 km/h 89 % 7.62 mm
06:07 -12.4 °C -13.4 °C 33020.3 hPa South 15.6 km/h 44.1 km/h 89 % 7.62 mm
06:17 -12.1 °C -13.3 °C 33030.4 hPa SSW 20.8 km/h 38.8 km/h 87 % 0 mm
06:27 -11.5 °C -13.2 °C 33030.4 hPa South 33.6 km/h 44.1 km/h 82 % 0 mm
06:32 -11.3 °C -13.1 °C 33040.6 hPa SW 36.2 km/h 72.6 km/h 81 % 0 mm
06:37 -11.2 °C -13.1 °C 33064.3 hPa SSW 59.5 km/h 72.6 km/h 79 % 0 mm
06:42 -11.2 °C -13.2 °C 33064.3 hPa WSW 54.4 km/h 85.5 km/h 79 % 0 mm
06:52 -11.3 °C -13.5 °C 33054.1 hPa SSW 25.9 km/h 90.6 km/h 77 % 0 mm
06:57 -11.4 °C -13.5 °C 33054.1 hPa WSW 54.4 km/h 90.6 km/h 78 % 0 mm
07:02 -11.5 °C -13.7 °C 33054.1 hPa SW 57 km/h 90.6 km/h 77 % 0 mm
07:12 -11.6 °C -13.7 °C 33064.3 hPa SW 44.1 km/h 82.9 km/h 78 % 0 mm
07:17 -11.7 °C -13.8 °C 33054.1 hPa SW 49.2 km/h 82.9 km/h 78 % 0 mm
07:22 -11.7 °C -14 °C 33054.1 hPa SW 51.8 km/h 82.9 km/h 76 % 0 mm
07:27 -11.8 °C -14.1 °C 33064.3 hPa SW 38.8 km/h 75.2 km/h 76 % 0 mm
07:32 -11.8 °C -14.2 °C 33064.3 hPa SSW 36.2 km/h 75.2 km/h 75 % 0 mm
07:57 -12.1 °C -14.5 °C 33064.3 hPa SW 31.1 km/h 75.2 km/h 74 % 0 mm
08:02 -12.1 °C -14.6 °C 33077.8 hPa SW 41.4 km/h 75.2 km/h 74 % 0 mm
08:17 -12.2 °C -14.5 °C 33077.8 hPa SW 44.1 km/h 77.7 km/h 75 % 0 mm
08:27 -12.3 °C -14.5 °C 33088 hPa SSW 41.4 km/h 88 km/h 76 % 0 mm
08:37 -12.3 °C -14.6 °C 33088 hPa SW 51.8 km/h 88 km/h 76 % 0 mm
08:42 -12.4 °C -14.6 °C 33088 hPa SW 44.1 km/h 88 km/h 76 % 0 mm
08:47 -12.4 °C -14.6 °C 33077.8 hPa SSW 51.8 km/h 88 km/h 76 % 0 mm
08:52 -12.4 °C -14.6 °C 33077.8 hPa SSW 67.3 km/h 88 km/h 77 % 0 mm
08:57 -12.4 °C -14.8 °C 33088 hPa SSW 44.1 km/h 85.5 km/h 75 % 0 mm
09:12 -12.4 °C -14.8 °C 33077.8 hPa SW 54.4 km/h 77.7 km/h 75 % 0 mm
09:17 -12.4 °C -14.8 °C 33088 hPa SSW 57 km/h 90.6 km/h 75 % 0 mm
09:27 -12.5 °C -14.8 °C 33088 hPa SSW 36.2 km/h 90.6 km/h 75 % 0 mm
09:32 -12.6 °C -14.9 °C 33088 hPa SW 82.9 km/h 85.5 km/h 75 % 0 mm
09:42 -12.6 °C -14.8 °C 33098.2 hPa SW 62.1 km/h 85.5 km/h 76 % 0 mm
09:47 -12.4 °C -14.8 °C 33098.2 hPa SW 57 km/h 82.9 km/h 75 % 0 mm
09:52 -12.5 °C -14.9 °C 33098.2 hPa SW 64.7 km/h 90.6 km/h 74 % 0 mm
09:57 -12.5 °C -14.8 °C 33098.2 hPa SSW 57 km/h 90.6 km/h 75 % 0 mm
10:02 -12.5 °C -14.9 °C 33098.2 hPa SW 57 km/h 90.6 km/h 74 % 0 mm
10:12 -12.4 °C -15 °C 33111.7 hPa SW 51.8 km/h 85.5 km/h 73 % 0 mm
10:17 -12.5 °C -14.9 °C 33111.7 hPa SW 64.7 km/h 88 km/h 74 % 0 mm
10:32 -12.5 °C -15.1 °C 33098.2 hPa SSW 51.8 km/h 98.3 km/h 73 % 0 mm
10:37 -12.4 °C -15.1 °C 33111.7 hPa SW 51.8 km/h 90.6 km/h 72 % 0 mm
10:42 -12.4 °C -14.9 °C 33111.7 hPa SW 64.7 km/h 90.6 km/h 73 % 0 mm
10:47 -12.4 °C -15.2 °C 33111.7 hPa SW 69.8 km/h 90.6 km/h 71 % 0 mm
10:52 -12.4 °C -15.3 °C 33111.7 hPa SW 85.5 km/h 90.6 km/h 70 % 0 mm
10:57 -12.3 °C -15.3 °C 33111.7 hPa SW 67.3 km/h 95.8 km/h 69 % 0 mm
11:02 -12.3 °C -15.2 °C 33121.9 hPa SW 54.4 km/h 95.8 km/h 70 % 0 mm
11:07 -12.3 °C -15.3 °C 33135.4 hPa SW 95.8 km/h 108.8 km/h 69 % 0 mm
11:17 -12.3 °C -15.2 °C 33145.6 hPa SW 49.2 km/h 111.4 km/h 70 % 0 mm
11:22 -12.3 °C -15.2 °C 33135.4 hPa SW 77.7 km/h 111.4 km/h 70 % 0 mm
11:32 -12.3 °C -14.9 °C 33135.4 hPa SSW 59.5 km/h 103.6 km/h 72 % 0 mm
11:37 -12.2 °C -15 °C 33135.4 hPa SW 59.5 km/h 103.6 km/h 71 % 0 mm
11:42 -12.2 °C -15.1 °C 33135.4 hPa SW 51.8 km/h 98.3 km/h 70 % 0 mm
11:47 -12.2 °C -14.7 °C 33135.4 hPa SSW 59.5 km/h 98.3 km/h 73 % 0 mm
11:52 -12.2 °C -14.9 °C 33135.4 hPa SW 54.4 km/h 101.1 km/h 71 % 0 mm
11:57 -12.2 °C -15.1 °C 33145.6 hPa WSW 57 km/h 101.1 km/h 70 % 0 mm
12:02 -12.2 °C -14.7 °C 33145.6 hPa SW 44.1 km/h 103.6 km/h 73 % 0 mm
12:07 -12.2 °C -15 °C 33135.4 hPa SSW 54.4 km/h 111.4 km/h 71 % 0 mm
12:12 -12.3 °C -15.1 °C 33135.4 hPa SW 49.2 km/h 111.4 km/h 71 % 0 mm
12:17 -12.3 °C -15.1 °C 33145.6 hPa SW 54.4 km/h 106.2 km/h 71 % 0 mm
12:22 -12.3 °C -15.1 °C 33145.6 hPa SW 75.2 km/h 106.2 km/h 71 % 0 mm
12:32 -12.2 °C -15.3 °C 33145.6 hPa SW 44.1 km/h 113.9 km/h 68 % 0 mm
12:37 -12.2 °C -15.2 °C 33135.4 hPa SW 88 km/h 113.9 km/h 69 % 0 mm
12:42 -12.2 °C -15.2 °C 33121.9 hPa WSW 77.7 km/h 108.8 km/h 69 % 0 mm
12:47 -12.3 °C -15.4 °C 33111.7 hPa SW 62.1 km/h 108.8 km/h 68 % 0 mm
12:52 -12.3 °C -15.3 °C 33121.9 hPa South 44.1 km/h 113.9 km/h 69 % 0 mm
13:02 -12.4 °C -15.3 °C 33121.9 hPa SW 75.2 km/h 113.9 km/h 70 % 0 mm
13:12 -12.4 °C -15.3 °C 33111.7 hPa WSW 59.5 km/h 88 km/h 70 % 0 mm
13:22 -12.4 °C -15.3 °C 33121.9 hPa SW 75.2 km/h 93.2 km/h 70 % 0 mm
13:27 -12.4 °C -15.4 °C 33111.7 hPa SSW 72.6 km/h 101.1 km/h 69 % 0 mm
13:32 -12.5 °C -15.5 °C 33121.9 hPa West 36.2 km/h 101.1 km/h 69 % 0 mm
13:42 -12.6 °C -15.3 °C 33135.4 hPa SW 38.8 km/h 103.6 km/h 71 % 0 mm
13:47 -12.6 °C -15.4 °C 33121.9 hPa SW 49.2 km/h 103.6 km/h 71 % 0 mm
13:52 -12.7 °C -15.2 °C 33135.4 hPa SW 41.4 km/h 106.2 km/h 73 % 0 mm
13:57 -12.7 °C -15.3 °C 33135.4 hPa SW 62.1 km/h 106.2 km/h 73 % 0 mm
14:02 -12.8 °C -15.2 °C 33145.6 hPa SW 46.7 km/h 106.2 km/h 74 % 0 mm
14:07 -12.8 °C -15.2 °C 33145.6 hPa SW 67.3 km/h 85.5 km/h 75 % 0 mm
14:12 -12.8 °C -15.3 °C 33145.6 hPa SW 57 km/h 85.5 km/h 74 % 0 mm
14:17 -12.8 °C -15.2 °C 33145.6 hPa WSW 28.5 km/h 93.2 km/h 75 % 0 mm
14:22 -12.8 °C -15.2 °C 33145.6 hPa WSW 44.1 km/h 101.1 km/h 75 % 0 mm
14:32 -12.8 °C -15.1 °C 33155.7 hPa SSW 44.1 km/h 98.3 km/h 76 % 0 mm
14:37 -12.8 °C -15.1 °C 33155.7 hPa WSW 54.4 km/h 106.2 km/h 76 % 0 mm
14:42 -12.8 °C -15.1 °C 33155.7 hPa SW 72.6 km/h 106.2 km/h 76 % 0 mm
14:47 -12.8 °C -15.2 °C 33155.7 hPa SW 64.7 km/h 106.2 km/h 75 % 0 mm
14:52 -12.8 °C -15.1 °C 33155.7 hPa SW 82.9 km/h 93.2 km/h 76 % 0 mm
14:57 -12.8 °C -15.2 °C 33155.7 hPa SW 44.1 km/h 82.9 km/h 75 % 0 mm
15:07 -12.9 °C -15.2 °C 33169.3 hPa SW 38.8 km/h 98.3 km/h 75 % 0 mm
15:12 -12.9 °C -15.1 °C 33179.4 hPa WSW 36.2 km/h 98.3 km/h 77 % 0 mm
15:17 -13 °C -15 °C 33189.6 hPa SW 31.1 km/h 98.3 km/h 78 % 0 mm
15:22 -13 °C -15 °C 33189.6 hPa SW 75.2 km/h 82.9 km/h 78 % 0 mm
15:27 -13.1 °C -14.9 °C 33213.3 hPa WSW 64.7 km/h 82.9 km/h 80 % 0 mm
15:32 -13.8 °C -15.1 °C 33213.3 hPa SW 31.1 km/h 113.9 km/h 85 % 7.62 mm
15:37 -13.9 °C -15.2 °C 33213.3 hPa West 31.1 km/h 113.9 km/h 85 % 12.7 mm
15:42 -13.9 °C -15.4 °C 33213.3 hPa West 33.6 km/h 113.9 km/h 83 % 12.7 mm
15:47 -13.9 °C -15.6 °C 33213.3 hPa WNW 51.8 km/h 80.3 km/h 82 % 12.7 mm
15:52 -13.9 °C -15.7 °C 33213.3 hPa WSW 75.2 km/h 88 km/h 80 % 12.7 mm
15:57 -13.8 °C -15.7 °C 33226.8 hPa West 38.8 km/h 95.8 km/h 79 % 12.7 mm
16:02 -13.8 °C -15.8 °C 33226.8 hPa West 41.4 km/h 95.8 km/h 78 % 12.7 mm
16:07 -13.8 °C -16.2 °C 33226.8 hPa WSW 46.7 km/h 108.8 km/h 74 % 12.7 mm
16:12 -13.8 °C -16.2 °C 33237 hPa SW 28.5 km/h 108.8 km/h 74 % 12.7 mm
16:17 -13.8 °C -16.1 °C 33237 hPa WSW 64.7 km/h 108.8 km/h 75 % 12.7 mm
16:22 -13.9 °C -16.1 °C 33247.1 hPa SW 41.4 km/h 98.3 km/h 76 % 12.7 mm
16:27 -13.9 °C -16.1 °C 33247.1 hPa SW 23.3 km/h 77.7 km/h 77 % 12.7 mm
16:32 -13.9 °C -16.1 °C 33260.7 hPa West 25.9 km/h 82.9 km/h 77 % 0 mm
16:37 -14 °C -16 °C 33270.8 hPa WSW 64.7 km/h 85.5 km/h 78 % 0 mm
16:42 -14 °C -16 °C 33270.8 hPa SW 33.6 km/h 85.5 km/h 78 % 0 mm
16:47 -14 °C -16 °C 33270.8 hPa SW 33.6 km/h 82.9 km/h 78 % 0 mm
16:52 -14 °C -16 °C 33284.4 hPa WSW 33.6 km/h 82.9 km/h 78 % 0 mm
16:57 -14 °C -16.1 °C 33284.4 hPa West 49.2 km/h 80.3 km/h 77 % 0 mm
17:02 -14.1 °C -16.1 °C 33284.4 hPa West 62.1 km/h 85.5 km/h 77 % 0 mm
17:07 -14.1 °C -16.3 °C 33294.5 hPa WSW 38.8 km/h 85.5 km/h 76 % 0 mm
17:12 -14.1 °C -16.3 °C 33304.7 hPa SSW 25.9 km/h 75.2 km/h 76 % 0 mm
17:22 -14.2 °C -16.1 °C 33318.2 hPa WSW 23.3 km/h 85.5 km/h 79 % 0 mm
17:32 -14.4 °C -15.9 °C 33338.6 hPa SW 57 km/h 67.3 km/h 82 % 0 mm
17:42 -14.5 °C -16 °C 33338.6 hPa West 23.3 km/h 72.6 km/h 83 % 0 mm
17:47 -14.5 °C -16 °C 33352.1 hPa SW 12.9 km/h 72.6 km/h 83 % 0 mm
17:52 -14.5 °C -16.1 °C 33362.3 hPa West 25.9 km/h 72.6 km/h 82 % 0 mm
17:57 -14.4 °C -16.3 °C 33362.3 hPa WSW 46.7 km/h 54.4 km/h 78 % 0 mm
18:02 -14.4 °C -16.4 °C 33362.3 hPa WSW 46.7 km/h 85.5 km/h 77 % 7.62 mm
18:07 -14.4 °C -16.6 °C 33375.8 hPa WNW 36.2 km/h 85.5 km/h 76 % 7.62 mm
18:12 -14.4 °C -16.6 °C 33386 hPa WSW 33.6 km/h 72.6 km/h 76 % 7.62 mm
18:17 -14.4 °C -16.7 °C 33386 hPa WNW 38.8 km/h 72.6 km/h 75 % 7.62 mm
18:22 -14.5 °C -16.7 °C 33396.1 hPa West 28.5 km/h 75.2 km/h 76 % 7.62 mm
18:27 -14.5 °C -16.7 °C 33396.1 hPa WSW 33.6 km/h 75.2 km/h 76 % 7.62 mm
18:32 -14.6 °C -16.6 °C 33409.7 hPa WNW 41.4 km/h 75.2 km/h 77 % 7.62 mm
18:42 -14.7 °C -16.7 °C 33419.8 hPa WSW 25.9 km/h 75.2 km/h 77 % 7.62 mm
18:47 -14.7 °C -16.8 °C 33419.8 hPa West 41.4 km/h 75.2 km/h 76 % 7.62 mm
18:57 -14.8 °C -16.9 °C 33443.5 hPa WNW 31.1 km/h 67.3 km/h 77 % 7.62 mm
19:02 -14.9 °C -16.9 °C 33443.5 hPa WNW 38.8 km/h 77.7 km/h 77 % 0 mm
19:07 -14.9 °C -16.9 °C 33453.7 hPa WNW 25.9 km/h 77.7 km/h 78 % 0 mm
19:17 -15 °C -17.1 °C 33467.2 hPa West 20.8 km/h 69.8 km/h 77 % 0 mm
19:22 -15.1 °C -17 °C 33477.4 hPa WSW 38.8 km/h 69.8 km/h 78 % 0 mm
19:27 -15.1 °C -17 °C 33477.4 hPa WSW 20.8 km/h 54.4 km/h 78 % 0 mm
19:32 -15.1 °C -17.1 °C 33490.9 hPa West 28.5 km/h 64.7 km/h 78 % 0 mm
19:37 -15.2 °C -17 °C 33490.9 hPa West 20.8 km/h 64.7 km/h 79 % 0 mm
19:42 -15.2 °C -17 °C 33501.1 hPa West 36.2 km/h 46.7 km/h 79 % 0 mm
19:47 -15.3 °C -17 °C 33511.2 hPa West 33.6 km/h 64.7 km/h 80 % 0 mm
19:52 -15.2 °C -17.1 °C 33511.2 hPa West 15.6 km/h 64.7 km/h 79 % 0 mm
19:57 -15.3 °C -17 °C 33524.8 hPa WNW 20.8 km/h 64.7 km/h 80 % 0 mm
20:07 -15.4 °C -17.1 °C 33534.9 hPa West 28.5 km/h 51.8 km/h 80 % 0 mm
20:12 -15.4 °C -17.2 °C 33545.1 hPa West 25.9 km/h 51.8 km/h 79 % 0 mm
20:17 -15.4 °C -17.3 °C 33558.6 hPa WSW 31.1 km/h 51.8 km/h 78 % 0 mm
20:22 -15.4 °C -17.4 °C 33568.8 hPa WNW 25.9 km/h 67.3 km/h 77 % 0 mm
20:27 -15.3 °C -17.5 °C 33582.3 hPa WNW 36.2 km/h 67.3 km/h 76 % 0 mm
20:32 -15.4 °C -17.6 °C 33582.3 hPa West 23.3 km/h 64.7 km/h 75 % 0 mm
20:37 -15.4 °C -17.6 °C 33592.5 hPa West 33.6 km/h 64.7 km/h 75 % 0 mm
20:42 -15.4 °C -17.8 °C 33592.5 hPa West 38.8 km/h 57 km/h 74 % 0 mm
20:47 -15.4 °C -17.9 °C 33602.7 hPa West 31.1 km/h 57 km/h 73 % 0 mm
20:52 -15.4 °C -17.9 °C 33616.2 hPa North 38.8 km/h 57 km/h 73 % 0 mm
20:57 -15.4 °C -17.8 °C 33616.2 hPa WNW 57 km/h 57 km/h 74 % 0 mm
21:02 -15.4 °C -17.7 °C 33626.4 hPa WNW 41.4 km/h 57 km/h 75 % 0 mm
21:12 -15.4 °C -17.6 °C 33639.9 hPa West 33.6 km/h 57 km/h 76 % 0 mm
21:17 -15.4 °C -17.6 °C 33650.1 hPa NNW 23.3 km/h 62.1 km/h 76 % 0 mm
21:22 -15.4 °C -17.5 °C 33660.2 hPa West 18.2 km/h 62.1 km/h 77 % 0 mm
21:32 -15.4 °C -17.5 °C 33673.8 hPa WNW 25.9 km/h 41.4 km/h 77 % 0 mm
21:42 -15.4 °C -17.6 °C 33673.8 hPa NW 10.3 km/h 49.2 km/h 76 % 0 mm
21:52 -15.4 °C -17.5 °C 33694.1 hPa WNW 23.3 km/h 44.1 km/h 77 % 0 mm
21:57 -15.4 °C -17.5 °C 33694.1 hPa WNW 18.2 km/h 31.1 km/h 77 % 0 mm
22:02 -15.4 °C -17.5 °C 33707.6 hPa WNW 25.9 km/h 41.4 km/h 77 % 0 mm
22:07 -15.4 °C -17.5 °C 33717.8 hPa West 10.3 km/h 41.4 km/h 77 % 0 mm
22:17 -15.4 °C -17.5 °C 33731.3 hPa West 15.6 km/h 33.6 km/h 77 % 0 mm
22:22 -15.4 °C -17.6 °C 33731.3 hPa WSW 7.7 km/h 31.1 km/h 76 % 0 mm
22:32 -15.5 °C -17.4 °C 33751.6 hPa West 12.9 km/h 36.2 km/h 78 % 0 mm
22:37 -15.5 °C -17.4 °C 33751.6 hPa WNW 15.6 km/h 33.6 km/h 78 % 0 mm
22:42 -15.5 °C -17.3 °C 33765.2 hPa West 10.3 km/h 28.5 km/h 79 % 0 mm
22:47 -15.6 °C -17.3 °C 33765.2 hPa WNW 7.7 km/h 28.5 km/h 80 % 0 mm
22:52 -15.6 °C -17.3 °C 33775.4 hPa West 2.6 km/h 25.9 km/h 80 % 0 mm
22:57 -15.7 °C -17.3 °C 33788.9 hPa WSW 25.9 km/h 25.9 km/h 81 % 0 mm
23:02 -15.7 °C -17.3 °C 33788.9 hPa WNW 5.1 km/h 25.9 km/h 82 % 0 mm
23:12 -15.7 °C -17.2 °C 33799.1 hPa West 5.1 km/h 25.9 km/h 83 % 0 mm
23:17 -15.7 °C -17.2 °C 33799.1 hPa West 5.1 km/h 25.9 km/h 83 % 0 mm
23:22 -15.8 °C -17.1 °C 33809.2 hPa West 12.9 km/h 25.9 km/h 84 % 0 mm
23:32 -15.7 °C -17.1 °C 33822.8 hPa West 18.2 km/h 20.8 km/h 84 % 0 mm
23:37 -15.7 °C -17.1 °C 33832.9 hPa WSW 18.2 km/h 25.9 km/h 84 % 0 mm
23:42 -15.8 °C -17.1 °C 33832.9 hPa WNW 2.6 km/h 25.9 km/h 85 % 0 mm
23:47 -15.8 °C -17.1 °C 33843.1 hPa WNW 25.9 km/h 25.9 km/h 85 % 0 mm
23:52 -15.8 °C -16.9 °C 33843.1 hPa WNW 7.7 km/h 28.5 km/h 86 % 0 mm
23:57 -15.8 °C -17 °C 33843.1 hPa West 5.1 km/h 28.5 km/h 86 % 0 mm
Meteo18
Compliments of Weather Underground - 4 mb

Script developed by  Jim McMurry - jmcmurry@mwt.net Adapted for the template by  Wim van der Kuil - Leuven-Template.eu

You find our weather info also at:

European Weather Network

Weather Underground

Equipment we use:

Weather-station
Davis Vue

Weather-program
Meteobridge

Weather-server
Raspberry PI 2 B+

Provider
1 and 1

Davis Vue

Meteobridge

Raspberry PI 2 B+

1 and 1